DIRECCIÓN GENERAL DE AERONÁUTICA CIVIL
DIRECCIÓN METEOROLÓGICA DE CHILE
INFORMACIÓN METAR Y TAF

FIR SANTIAGO

Estación: SCSE
METAR SCSE 180400Z 11005KT CAVOK 13/12 Q1014=

TAF SCSE 180410Z 1806/1906 13004KT CAVOK TX20/1818Z TN11/1810Z TEMPO 1808/1812 VRB02KT SCT013 BECMG 1814/1816 28008KT BECMG 1900/1902 26005KT BECMG 1902/1904 13004KT=

Estación: SCER
NIL=

NIL=

Estación: SCRD
METAR SCRD 172200Z 22012KT CAVOK 22/07 Q1016=

TAF SCRD 171048Z 1712/1724 VRB02KT CAVOK TX20/1718Z TN09/1712Z BECMG 1714/1716 19013KT=

Estación: SCVM
METAR SCVM 180400Z 00000KT CAVOK 13/08 Q1015=

TAF SCVM 180410Z 1806/1906 VRB02KT CAVOK TX21/1818Z TN09/1810Z TEMPO 1806/1812 14004KT BECMG 1814/1816 30005KT BECMG 1818/1820 33010KT BECMG 1901/1903 29005KT=

Estación: SCTB
METAR SCTB 172200Z 21004KT CAVOK 24/05 Q1018=

TAF SCTB 171107Z 1712/1724 VRB02KT CAVOK TX27/1718Z TN08/1712Z BECMG 1716/1718 20008KT TEMPO 1716/1720 7000=

Estación: SCEL
METAR SCEL 180400Z VRB03KT 8000 SKC 14/03 Q1016 NOSIG=

TAF SCEL 180410Z 1806/1906 VRB02KT CAVOK TX25/1819Z TN08/1810Z BECMG 1816/1818 19012KT BECMG 1818/1820 SCT180 BKN200 BECMG 1901/1903 16005KT=

Estación: SCSN
METAR SCSN 180400Z AUTO 11003KT CAVOK 07/06 Q1015=

TAF SCSN 171106Z 1712/1724 VRB02KT CAVOK TX20/1718Z TN10/1712Z BECMG 1715/1717 22014KT=

Estación: SCRG
METAR SCRG 172000Z 16011KT CAVOK 21/05 Q1017=

TAF SCRG 171045Z 1712/1724 VRB02KT CAVOK TX26/1719Z TN07/1712Z BECMG 1714/1716 17010KT=

Estación: SCIC
METAR SCIC 180400Z AUTO 05003KT 020V080 9999 NCD 08/05 Q1015=

TAF SCIC 171045Z 1712/1724 17004KT CAVOK TX25/1719Z TN06/1712Z BECMG 1715/1717 19012KT=

Estación: SCCH
METAR SCCH 172200Z 21002KT CAVOK 19/01 Q1018=

TAF SCCH 171046Z 1712/1724 VRB02KT CAVOK TX23/1718Z TN05/1712Z BECMG 1716/1718 21008KT SCT040=

Estación: SCIE
METAR SCIE 180400Z 12002KT CAVOK 09/08 Q1017=

TAF SCIE 180410Z 1806/1906 20004KT CAVOK TX16/1818Z TN08/1810Z TEMPO 1806/1812 15004KT BKN120 BECMG 1812/1814 33005KT SCT020 BKN100 BECMG 1816/1818 33013KT BKN020 BKN080 TEMPO 1819/1824 33015G25KT 6000 SHRA BKN020 BKN050 BECMG 1902/1904 28010KT=

Estación: SCGE
METAR SCGE 172100Z 00000KT CAVOK 19/03 Q1019=

TAF AMD SCGE 171230Z 1713/1724 VRB02KT 3000 HZ NSC TX23/1719Z TN01/ 1713Z BECMG 1713/1715 CAVOK BECMG 1715/1717 18012KT=


Volver